EVY weather

Summit Airport
Middletown, Delaware, United States

Public forecast

Using degrees Fahrenheit for public forecast. Weather courtesy of forecast.io.

METAR (pilot weather report)

Closest report is New Castle Airport, 10.9 nm (20.1 km) NNE. Retrieved 2019/09/22 18:51 UTC (24 minutes ago):

KILG 221851Z 15012KT 10SM CLR 31/19 A3008 RMK AO2 SLP184 T03110194

TAF (pilot weather forecast)

Closest forecast is New Castle Airport, 10.9 nm (20.1 km) NNE. Retrieved 2019/09/22 18:22 UTC (53 minutes ago):

TAF KILG 221720Z 2218/2318 17006KT P6SM FEW250 FM230200 VRB03KT P6SM SCT200 FM230900 VRB03KT 6SM BR SCT200 FM231400 23007KT P6SM SCT200